Time;durP1;ratioP1;P1;durP2;ratioP2;P2;SDS_P1;SDS_P2;PMS_P1;PMS_P2;Temp;Humidity;BMP_temperature;BMP_pressure;BME280_temperature;BME280_humidity;BME280_pressure;Samples;Min_cycle;Max_cycle;Signal;HPM_P1;HPM_P2
2021/12/05 00:17:45;;;;;;;42.30;24.27;;;;;;;0.49;81.73;99526.20;1464618;88;21701;-87
2021/12/05 00:23:26;;;;;;;38.50;22.97;;;;;;;0.56;81.17;99527.91;1423869;91;21816;-86
2021/12/05 00:25:51;;;;;;;37.43;20.57;;;;;;;0.55;81.02;99523.17;1411268;91;21902;-87
2021/12/05 00:49:55;;;;;;;26.10;15.87;;;;;;;0.57;79.72;99536.06;1439820;90;21836;-86
2021/12/05 01:00:30;;;;;;;24.53;14.43;;;;;;;0.55;79.75;99540.57;1491829;86;21751;-85
2021/12/05 01:15:46;;;;;;;28.00;17.07;;;;;;;0.52;79.51;99547.27;1456306;88;21603;-86
2021/12/05 01:18:20;;;;;;;23.37;14.90;;;;;;;0.52;79.61;99541.61;1455534;88;21720;-87
2021/12/05 01:20:51;;;;;;;25.65;16.37;;;;;;;0.53;80.03;99539.84;1453810;88;22561;-86
2021/12/05 01:23:32;;;;;;;24.27;14.93;;;;;;;0.55;79.77;99531.46;1461021;88;21467;-85
2021/12/05 01:26:04;;;;;;;28.60;17.70;;;;;;;0.55;79.96;99528.37;1480518;86;21679;-85
2021/12/05 01:31:14;;;;;;;27.40;17.20;;;;;;;0.56;80.16;99530.51;1479827;86;22635;-85
2021/12/05 01:33:42;;;;;;;25.50;17.17;;;;;;;0.60;80.24;99529.34;1477017;86;21788;-84
2021/12/05 02:16:33;;;;;;;28.53;16.67;;;;;;;0.40;81.69;99504.23;1445540;89;21619;-84
2021/12/05 02:32:42;;;;;;;26.10;17.03;;;;;;;0.50;81.21;99485.38;1438702;88;21846;-87
2021/12/05 02:34:53;;;;;;;25.10;15.47;;;;;;;0.51;81.33;99481.82;1430931;90;21805;-87
2021/12/05 02:40:09;;;;;;;36.77;19.73;;;;;;;0.57;81.41;99476.18;1437846;90;21783;-87
2021/12/05 02:42:32;;;;;;;29.57;18.10;;;;;;;0.58;81.68;99475.26;1430905;89;21849;-86
2021/12/05 02:44:52;;;;;;;33.63;19.70;;;;;;;0.57;81.76;99473.10;1425724;91;21919;-87
2021/12/05 02:47:23;;;;;;;26.47;17.30;;;;;;;0.58;81.74;99468.75;1428198;91;21883;-87
2021/12/05 02:49:53;;;;;;;31.50;18.52;;;;;;;0.58;81.54;99472.66;1430535;91;21800;-87
2021/12/05 02:52:28;;;;;;;25.17;14.80;;;;;;;0.59;81.24;99475.14;1437693;91;21442;-86
2021/12/05 02:55:00;;;;;;;30.57;17.73;;;;;;;0.61;81.34;99472.44;1433846;91;21681;-87
2021/12/05 02:57:50;;;;;;;28.17;17.07;;;;;;;0.64;81.12;99474.83;1438086;88;21786;-86
2021/12/05 03:00:08;;;;;;;31.07;16.90;;;;;;;0.63;81.29;99469.23;1434801;90;22898;-86
2021/12/05 03:02:38;;;;;;;28.63;17.33;;;;;;;0.63;80.79;99470.54;1438345;90;21760;-86
2021/12/05 03:05:00;;;;;;;26.73;17.50;;;;;;;0.61;80.79;99463.33;1439246;89;21886;-86
2021/12/05 03:07:29;;;;;;;26.60;16.67;;;;;;;0.60;80.67;99460.34;1444801;89;21992;-86
2021/12/05 03:09:54;;;;;;;25.57;16.33;;;;;;;0.60;80.64;99457.73;1472215;87;21586;-86
2021/12/05 03:12:21;;;;;;;25.33;16.90;;;;;;;0.62;80.53;99458.47;1482354;87;21499;-87
2021/12/05 03:14:49;;;;;;;25.67;16.53;;;;;;;0.62;80.49;99455.39;1480266;87;21864;-86
2021/12/05 03:17:17;;;;;;;26.00;16.10;;;;;;;0.63;80.49;99448.41;1460536;89;21611;-86
2021/12/05 03:19:43;;;;;;;25.47;16.20;;;;;;;0.58;80.17;99446.62;1451019;89;21617;-85
2021/12/05 03:22:10;;;;;;;25.03;15.33;;;;;;;0.58;80.25;99445.31;1447186;89;21677;-86
2021/12/05 03:24:36;;;;;;;30.17;17.63;;;;;;;0.55;80.59;99442.93;1475459;87;21905;-86
2021/12/05 03:27:04;;;;;;;27.67;17.57;;;;;;;0.57;80.60;99437.13;1481130;86;21675;-86
2021/12/05 03:29:30;;;;;;;23.97;15.70;;;;;;;0.57;80.51;99430.61;1477698;87;21731;-86
2021/12/05 03:31:57;;;;;;;29.63;18.10;;;;;;;0.58;80.50;99428.39;1479434;87;21943;-86
2021/12/05 03:34:25;;;;;;;28.67;18.10;;;;;;;0.61;80.36;99437.28;1482647;87;21646;-86
2021/12/05 03:36:55;;;;;;;27.03;15.83;;;;;;;0.61;80.39;99429.47;1481273;87;21637;-86
2021/12/05 03:39:22;;;;;;;27.70;18.07;;;;;;;0.58;80.47;99425.79;1483421;87;21750;-86
2021/12/05 03:41:52;;;;;;;27.50;17.27;;;;;;;0.59;80.24;99428.74;1478718;87;21669;-87
2021/12/05 03:44:22;;;;;;;25.67;17.07;;;;;;;0.59;80.35;99426.14;1446552;87;21828;-85
2021/12/05 03:46:51;;;;;;;27.45;17.40;;;;;;;0.62;80.29;99433.25;1481641;87;21883;-84
2021/12/05 03:49:18;;;;;;;25.10;16.13;;;;;;;0.68;80.10;99425.48;1482068;87;21508;-84
2021/12/05 03:51:51;;;;;;;25.73;16.53;;;;;;;0.68;80.05;99425.48;1484798;87;21859;-85
2021/12/05 03:54:18;;;;;;;25.43;16.73;;;;;;;0.69;79.99;99424.53;1488415;87;22648;-85
2021/12/05 03:56:44;;;;;;;28.43;17.07;;;;;;;0.72;79.95;99422.17;1455624;87;21733;-86
2021/12/05 03:59:17;;;;;;;29.97;16.73;;;;;;;0.70;79.66;99418.88;1463232;88;21496;-85
2021/12/05 04:01:45;;;;;;;24.13;15.53;;;;;;;0.71;79.63;99420.05;1462601;88;21672;-85
2021/12/05 04:04:12;;;;;;;24.00;15.87;;;;;;;0.71;79.79;99422.66;1462395;88;21968;-84
2021/12/05 04:06:39;;;;;;;31.37;16.43;;;;;;;0.71;79.52;99420.05;1420582;88;21784;-85
2021/12/05 04:09:09;;;;;;;25.33;15.77;;;;;;;0.72;79.58;99423.03;1458600;89;21835;-86
2021/12/05 04:11:43;;;;;;;25.72;15.45;;;;;;;0.75;79.60;99426.72;1455406;88;22644;-84
2021/12/05 04:14:13;;;;;;;25.73;15.53;;;;;;;0.78;79.35;99433.02;1450698;88;22475;-84
2021/12/05 04:16:42;;;;;;;23.87;15.65;;;;;;;0.80;79.23;99429.80;1452202;89;22147;-84
2021/12/05 04:19:09;;;;;;;24.67;15.00;;;;;;;0.84;79.22;99439.08;1457213;89;22432;-84
2021/12/05 04:21:37;;;;;;;26.23;16.23;;;;;;;0.86;79.12;99432.00;1456492;89;21640;-85
2021/12/05 04:24:08;;;;;;;28.30;17.10;;;;;;;0.88;79.19;99427.48;1472385;87;21661;-84
2021/12/05 04:26:35;;;;;;;26.90;16.02;;;;;;;0.92;79.20;99435.08;1449980;89;21745;-86
2021/12/05 04:29:04;;;;;;;25.57;15.73;;;;;;;0.93;79.27;99432.86;1457215;89;21450;-86
2021/12/05 04:31:33;;;;;;;28.30;16.80;;;;;;;0.94;79.30;99439.72;1427782;89;21621;-86
2021/12/05 04:34:00;;;;;;;25.37;16.13;;;;;;;0.96;79.45;99439.97;1452430;89;21752;-85
2021/12/05 04:36:27;;;;;;;30.80;16.37;;;;;;;0.96;79.64;99443.05;1454244;89;21730;-86
2021/12/05 04:38:54;;;;;;;25.00;15.17;;;;;;;0.95;79.55;99442.23;1450774;88;21683;-86
2021/12/05 04:41:23;;;;;;;22.10;14.47;;;;;;;0.94;79.71;99442.32;1450841;89;21758;-86
2021/12/05 04:43:51;;;;;;;25.67;15.50;;;;;;;0.93;80.26;99448.48;1460050;89;22800;-87
2021/12/05 04:46:23;;;;;;;24.13;15.70;;;;;;;0.93;80.01;99443.28;1453229;89;21879;-84
2021/12/05 04:48:52;;;;;;;28.10;16.77;;;;;;;0.97;80.19;99447.31;1483968;87;22293;-84
2021/12/05 04:51:22;;;;;;;25.80;16.40;;;;;;;0.97;80.70;99444.23;1470581;87;21606;-84
2021/12/05 04:53:50;;;;;;;22.87;15.67;;;;;;;0.98;80.60;99452.42;1471200;87;22107;-83
2021/12/05 04:56:18;;;;;;;29.70;17.30;;;;;;;1.00;80.62;99444.48;1482747;87;21913;-84
2021/12/05 04:58:46;;;;;;;24.63;15.40;;;;;;;1.02;80.96;99445.21;1455113;89;21708;-84
2021/12/05 05:01:13;;;;;;;27.37;18.27;;;;;;;1.03;81.22;99445.08;1455098;88;21619;-86
2021/12/05 05:03:39;;;;;;;27.63;16.57;;;;;;;1.06;81.26;99444.03;1454247;89;21500;-86
2021/12/05 05:06:15;;;;;;;24.50;16.37;;;;;;;1.08;81.30;99446.89;1449992;89;21857;-86
2021/12/05 05:08:48;;;;;;;30.37;18.77;;;;;;;1.08;81.51;99451.28;1475164;87;21847;-86
2021/12/05 05:11:18;;;;;;;30.00;17.20;;;;;;;1.06;81.44;99450.55;1482107;87;21658;-86
2021/12/05 05:13:46;;;;;;;30.47;19.93;;;;;;;1.04;81.56;99457.19;1477902;87;22567;-86
2021/12/05 05:16:15;;;;;;;33.00;20.30;;;;;;;1.04;81.98;99452.45;1482824;87;21661;-86
2021/12/05 05:18:48;;;;;;;30.30;19.23;;;;;;;1.06;81.81;99453.16;1493166;87;23678;-86
2021/12/05 05:27:02;;;;;;;26.40;16.53;;;;;;;1.11;82.25;99464.08;1482113;86;21831;-85
2021/12/05 05:40:25;;;;;;;27.57;17.67;;;;;;;0.98;83.21;99465.90;1480410;86;21950;-85
2021/12/05 05:44:04;;;;;;;28.67;17.20;;;;;;;1.00;83.46;99467.94;1482480;87;21717;-86
2021/12/05 05:50:19;;;;;;;28.33;17.73;;;;;;;0.96;83.52;99465.20;1489709;87;21789;-85
2021/12/05 05:52:46;;;;;;;25.30;17.25;;;;;;;0.96;84.14;99463.89;1480175;87;22513;-86
2021/12/05 05:55:13;;;;;;;24.80;16.20;;;;;;;0.96;84.10;99467.33;1480249;87;21495;-85
2021/12/05 05:57:45;;;;;;;28.30;18.53;;;;;;;0.98;84.17;99467.20;1478874;87;21882;-86
2021/12/05 06:00:29;;;;;;;26.43;17.17;;;;;;;1.02;84.02;99465.58;1480785;87;22861;-86
2021/12/05 06:05:34;;;;;;;29.87;17.63;;;;;;;1.02;84.27;99466.06;1479991;87;21687;-86
2021/12/05 06:08:00;;;;;;;30.57;18.03;;;;;;;1.00;84.36;99466.63;1488130;87;21677;-86
2021/12/05 06:10:30;;;;;;;28.70;19.13;;;;;;;0.99;84.58;99466.28;1489043;87;21584;-86
2021/12/05 06:12:58;;;;;;;25.10;16.52;;;;;;;0.97;84.79;99465.55;1483872;87;21849;-85
2021/12/05 06:15:26;;;;;;;36.43;20.73;;;;;;;0.97;85.19;99465.07;1476957;87;21466;-87
2021/12/05 06:17:54;;;;;;;33.40;21.70;;;;;;;0.98;84.69;99468.06;1486260;87;21970;-87
2021/12/05 06:20:25;;;;;;;24.67;16.87;;;;;;;1.03;84.73;99472.45;1480655;87;21648;-86
2021/12/05 06:22:54;;;;;;;27.67;17.90;;;;;;;1.05;84.96;99465.83;1481754;87;21751;-86
2021/12/05 06:25:24;;;;;;;28.43;19.30;;;;;;;1.04;85.20;99470.22;1509416;87;21936;-86
2021/12/05 06:27:55;;;;;;;31.23;19.25;;;;;;;1.01;85.24;99466.53;1476541;87;21828;-86
2021/12/05 06:30:39;;;;;;;27.35;19.00;;;;;;;1.00;85.14;99466.63;1481375;87;21529;-85
2021/12/05 06:46:12;;;;;;;26.43;17.07;;;;;;;1.11;85.83;99481.85;1400687;92;22617;-86
2021/12/05 06:48:36;;;;;;;29.10;19.20;;;;;;;1.11;85.70;99477.94;1388404;92;21887;-85
2021/12/05 06:51:04;;;;;;;30.70;20.07;;;;;;;1.11;85.80;99484.94;1390444;92;21807;-86
2021/12/05 06:53:30;;;;;;;32.30;22.17;;;;;;;1.11;85.93;99492.75;1360031;94;21706;-86
2021/12/05 06:55:57;;;;;;;33.73;20.93;;;;;;;1.13;85.82;99492.18;1387275;92;21789;-85
2021/12/05 06:58:24;;;;;;;33.63;21.33;;;;;;;1.16;86.02;99493.27;1402351;92;21900;-86
2021/12/05 07:00:53;;;;;;;42.23;24.50;;;;;;;1.19;85.77;99495.64;1392210;92;21879;-86
2021/12/05 07:03:19;;;;;;;44.13;25.87;;;;;;;1.21;85.77;99497.68;1382369;92;24302;-85
2021/12/05 07:08:14;;;;;;;39.00;23.97;;;;;;;1.22;85.79;99504.55;1391258;92;21720;-86
2021/12/05 07:11:10;;;;;;;34.17;23.50;;;;;;;1.21;86.15;99510.71;1376939;92;22972;-86
2021/12/05 07:13:44;;;;;;;41.23;23.60;;;;;;;1.19;86.17;99509.98;1379980;92;21906;-87
2021/12/05 07:16:05;;;;;;;37.77;22.03;;;;;;;1.20;86.06;99523.36;1434145;88;21715;-87
2021/12/05 07:26:19;;;;;;;34.13;22.42;;;;;;;1.35;86.18;99522.28;1377737;94;21859;-87
2021/12/05 07:42:38;;;;;;;39.80;22.27;;;;;;;1.31;87.06;99520.82;1378586;94;21663;-87
2021/12/05 07:45:05;;;;;;;35.53;21.23;;;;;;;1.35;87.13;99520.12;1375308;94;21684;-87
2021/12/05 07:47:32;;;;;;;41.60;26.07;;;;;;;1.39;87.04;99519.45;1376708;94;22102;-88
2021/12/05 07:50:07;;;;;;;42.27;26.57;;;;;;;1.43;86.92;99515.66;1399065;93;21676;-86
2021/12/05 07:52:30;;;;;;;52.50;32.20;;;;;;;1.49;86.88;99519.95;1401401;93;23043;-87
2021/12/05 07:55:07;;;;;;;47.17;33.30;;;;;;;1.52;86.94;99526.24;1399121;93;21634;-86
2021/12/05 07:57:39;;;;;;;51.37;32.03;;;;;;;1.52;87.02;99524.94;1396589;93;22888;-87
2021/12/05 08:16:19;;;;;;;40.13;25.33;;;;;;;1.77;87.76;99525.28;1480289;87;21635;-80
2021/12/05 08:18:44;;;;;;;40.83;24.53;;;;;;;1.80;87.43;99528.97;1495271;86;21599;-81
2021/12/05 08:21:12;;;;;;;39.60;25.17;;;;;;;1.84;87.36;99526.95;1486137;87;21905;-81
2021/12/05 08:23:40;;;;;;;42.83;25.97;;;;;;;1.87;87.32;99524.59;1486261;87;21753;-82
2021/12/05 08:26:11;;;;;;;44.97;28.87;;;;;;;1.89;87.28;99528.75;1486375;87;21652;-80
2021/12/05 09:29:40;;;;;;;42.17;28.07;;;;;;;2.30;88.94;99531.80;1446515;89;21675;-94
2021/12/05 09:38:38;;;;;;;36.20;23.73;;;;;;;2.33;89.69;99521.13;1466994;88;21607;-94
2021/12/05 10:07:25;;;;;;;30.60;19.40;;;;;;;2.59;90.00;99495.61;1450120;89;22006;-93
2021/12/05 10:15:01;;;;;;;32.30;20.83;;;;;;;3.16;90.82;99467.98;1459061;89;21854;-93
2021/12/05 10:17:43;;;;;;;35.30;23.33;;;;;;;3.37;90.47;99474.55;1447166;87;23002;-93
2021/12/05 10:20:27;;;;;;;29.20;18.60;;;;;;;3.37;90.47;99474.55;1446807;86;22283;-94
2021/12/05 10:37:20;;;;;;;22.83;16.47;;;;;;;4.47;87.30;99464.47;1424409;86;21671;-93
2021/12/05 10:39:47;;;;;;;28.10;18.20;;;;;;;4.45;86.25;99455.91;1462293;85;23612;-95
2021/12/05 10:42:44;;;;;;;28.87;18.30;;;;;;;4.48;85.46;99458.75;1497717;85;21379;-94
2021/12/05 10:45:13;;;;;;;29.37;19.70;;;;;;;4.51;85.90;99461.92;1492995;85;22361;-96
2021/12/05 10:47:45;;;;;;;30.57;19.80;;;;;;;4.51;85.72;99455.86;1491689;85;21601;-94
2021/12/05 10:50:41;;;;;;;31.40;20.97;;;;;;;4.47;85.88;99448.75;1484193;85;21329;-96
2021/12/05 10:53:40;;;;;;;27.83;19.17;;;;;;;4.49;86.26;99452.08;1495167;85;21395;-93
2021/12/05 10:56:09;;;;;;;30.63;20.17;;;;;;;4.53;86.16;99453.45;1468912;85;21603;31
2021/12/05 10:58:56;;;;;;;26.97;18.87;;;;;;;4.55;85.83;99444.66;1514259;85;21315;-94
2021/12/05 11:01:49;;;;;;;28.27;18.80;;;;;;;4.62;86.08;99443.97;1489910;87;22474;-91
2021/12/05 11:04:20;;;;;;;25.67;17.13;;;;;;;4.63;85.71;99440.86;1489764;85;21462;-93
2021/12/05 11:07:04;;;;;;;25.77;16.77;;;;;;;4.55;85.31;99433.69;1488124;85;21523;-90
2021/12/05 11:09:36;;;;;;;26.17;16.00;;;;;;;4.56;85.23;99437.13;1502123;86;21410;-91
2021/12/05 11:12:23;;;;;;;22.43;16.27;;;;;;;4.53;85.66;99435.11;1509575;85;21461;-91
2021/12/05 11:15:04;;;;;;;19.90;14.63;;;;;;;4.58;85.77;99432.59;1492604;83;21492;-94
2021/12/05 11:17:37;;;;;;;20.72;13.70;;;;;;;4.50;86.00;99436.69;1525698;85;21358;-94
2021/12/05 11:20:28;;;;;;;22.47;15.73;;;;;;;4.59;85.41;99431.63;1529946;85;21358;-93
2021/12/05 11:22:50;;;;;;;24.00;14.40;;;;;;;4.64;85.67;99435.98;1510398;85;21676;-93
2021/12/05 11:25:23;;;;;;;21.50;15.08;;;;;;;4.62;85.51;99432.66;1497308;86;22209;-91
2021/12/05 11:27:53;;;;;;;22.83;14.80;;;;;;;4.64;85.68;99435.50;1492942;86;22321;-91
2021/12/05 11:30:30;;;;;;;23.10;17.00;;;;;;;4.69;85.70;99433.77;1499001;86;23456;-93
2021/12/05 11:33:17;;;;;;;26.77;18.10;;;;;;;4.73;85.34;99439.11;1483670;86;21415;-94
2021/12/05 11:35:52;;;;;;;29.57;18.77;;;;;;;4.70;85.46;99434.96;1477545;88;22376;-92
2021/12/05 11:38:35;;;;;;;35.90;22.33;;;;;;;4.64;85.51;99432.88;1479179;85;21295;-91
2021/12/05 11:41:11;;;;;;;44.30;27.63;;;;;;;4.64;85.45;99430.81;1423907;85;21738;-93
2021/12/05 11:43:54;;;;;;;31.17;22.57;;;;;;;4.68;85.50;99430.81;1463808;86;22224;-95
2021/12/05 11:46:36;;;;;;;37.40;23.07;;;;;;;4.70;85.90;99427.58;1489131;87;21310;-95
2021/12/05 11:49:13;;;;;;;28.60;20.47;;;;;;;4.66;85.61;99417.00;1449885;86;21626;-94
2021/12/05 11:51:55;;;;;;;28.70;20.33;;;;;;;4.60;85.11;99415.75;1410472;86;21759;-93
2021/12/05 11:54:32;;;;;;;37.23;25.23;;;;;;;4.62;85.03;99414.31;1438250;87;21729;-95
2021/12/05 11:57:11;;;;;;;39.57;27.97;;;;;;;4.61;85.06;99417.42;1447846;90;21455;-94
2021/12/05 11:59:45;;;;;;;34.50;21.73;;;;;;;4.56;85.47;99413.06;1446635;90;21389;-94
2021/12/05 12:02:22;;;;;;;31.07;21.27;;;;;;;4.48;85.61;99407.16;1442092;90;21411;-94
2021/12/05 12:05:13;;;;;;;30.83;21.40;;;;;;;4.48;85.47;99405.86;1444581;90;21455;-94
2021/12/05 12:07:53;;;;;;;29.03;20.77;;;;;;;4.46;85.64;99407.80;1438144;90;21493;-93
2021/12/05 12:10:44;;;;;;;34.10;20.73;;;;;;;4.40;85.75;99401.79;1438270;89;21344;-93
2021/12/05 12:15:44;;;;;;;29.90;20.80;;;;;;;4.35;85.32;99396.11;1361154;89;21745;-92
2021/12/05 12:18:24;;;;;;;36.65;23.52;;;;;;;4.33;85.73;99400.65;1410028;92;21413;-93
2021/12/05 12:20:47;;;;;;;29.23;20.63;;;;;;;4.26;86.17;99397.73;1406540;92;21420;-90
2021/12/05 12:23:20;;;;;;;27.27;18.73;;;;;;;4.21;85.84;99395.16;1415622;92;21392;-91
2021/12/05 12:25:50;;;;;;;28.20;19.47;;;;;;;4.14;85.29;99391.40;1414249;92;21473;-92
2021/12/05 12:28:20;;;;;;;32.10;22.15;;;;;;;4.07;85.16;99388.00;1388115;88;21800;-88
2021/12/05 12:31:00;;;;;;;33.37;22.63;;;;;;;4.14;86.17;99380.92;1445355;88;21595;-95
2021/12/05 12:33:38;;;;;;;37.50;26.00;;;;;;;4.14;86.17;99380.92;1478814;88;21522;-90
2021/12/05 12:36:05;;;;;;;29.57;20.37;;;;;;;4.16;85.99;99377.22;1492015;88;21447;-89
2021/12/05 12:38:39;;;;;;;37.27;22.80;;;;;;;4.16;86.00;99382.94;1481308;88;23016;-87
2021/12/05 12:41:22;;;;;;;38.17;23.23;;;;;;;4.20;85.68;99390.41;1482854;88;22391;-89
2021/12/05 12:44:00;;;;;;;34.10;21.23;;;;;;;4.27;85.51;99394.63;1482154;88;21574;-89
2021/12/05 12:46:36;;;;;;;37.03;24.63;;;;;;;4.32;85.15;99395.55;1476452;88;21469;-84
2021/12/05 12:49:20;;;;;;;31.23;21.90;;;;;;;4.33;85.08;99393.27;1479756;88;22090;-84
2021/12/05 12:52:03;;;;;;;35.70;23.37;;;;;;;4.29;83.68;99385.58;1482310;86;22045;-84
2021/12/05 12:54:37;;;;;;;38.10;24.43;;;;;;;4.25;84.09;99385.58;1509311;86;21358;-84
2021/12/05 12:57:15;;;;;;;34.13;22.97;;;;;;;4.18;84.77;99378.41;1506955;86;22117;-84
2021/12/05 12:59:55;;;;;;;38.27;23.80;;;;;;;4.18;84.77;99378.41;1510896;86;21490;-84
2021/12/05 13:02:38;;;;;;;34.43;22.70;;;;;;;4.24;85.38;99377.88;1508044;86;22043;-84
2021/12/05 13:05:16;;;;;;;34.47;22.80;;;;;;;4.23;85.01;99381.44;1513698;86;22205;-84
2021/12/05 13:10:42;;;;;;;34.00;21.67;;;;;;;4.27;84.76;99389.39;1522806;86;22034;-85
2021/12/05 13:13:19;;;;;;;36.73;22.37;;;;;;;4.25;84.43;99396.06;1511121;86;21394;-83
2021/12/05 13:16:00;;;;;;;30.67;19.93;;;;;;;4.18;84.22;99394.13;1511920;86;22175;-84
2021/12/05 13:18:33;;;;;;;32.35;21.37;;;;;;;4.10;84.46;99392.64;1499012;86;22364;-84
2021/12/05 13:21:08;;;;;;;31.63;22.40;;;;;;;4.02;84.21;99389.35;1507468;86;21409;-84
2021/12/05 13:23:50;;;;;;;39.73;25.93;;;;;;;3.97;84.30;99391.53;1511801;86;23022;-84
2021/12/05 13:26:39;;;;;;;33.27;22.17;;;;;;;3.94;84.73;99394.41;1494836;86;21990;-84
2021/12/05 13:29:24;;;;;;;36.93;24.03;;;;;;;3.90;84.71;99400.88;1507698;86;21995;-84
2021/12/05 13:32:07;;;;;;;36.20;23.00;;;;;;;3.91;84.86;99399.91;1503163;84;23102;-84
2021/12/05 13:34:47;;;;;;;39.17;24.10;;;;;;;3.92;84.91;99390.63;1519288;85;22124;-84
2021/12/05 13:37:42;;;;;;;42.20;25.77;;;;;;;3.95;85.01;99389.05;1509869;85;22166;-92
2021/12/05 13:40:26;;;;;;;43.37;26.97;;;;;;;3.96;84.81;99395.94;1517481;85;21478;-94
2021/12/05 13:43:05;;;;;;;46.50;28.97;;;;;;;3.94;84.86;99405.73;1511059;85;22095;-87
2021/12/05 13:45:35;;;;;;;72.13;43.03;;;;;;;3.92;84.80;99406.82;1520898;85;22112;-89
2021/12/05 13:48:13;;;;;;;44.97;28.17;;;;;;;3.88;85.05;99400.17;1538382;85;22066;-89
2021/12/05 13:50:50;;;;;;;43.93;27.83;;;;;;;3.83;85.31;99403.19;1521525;85;22185;-90
2021/12/05 13:53:24;;;;;;;41.20;24.87;;;;;;;3.80;85.39;99404.77;1523249;85;22032;-89
2021/12/05 13:56:20;;;;;;;154.93;65.20;;;;;;;3.78;85.36;99396.20;1515426;85;22132;-91
2021/12/05 13:58:40;;;;;;;166.73;72.10;;;;;;;3.77;85.18;99395.38;1520431;85;22964;-91
2021/12/05 14:01:18;;;;;;;82.87;41.47;;;;;;;3.80;85.11;99391.19;1520769;85;23040;-88
2021/12/05 14:04:13;;;;;;;434.67;156.80;;;;;;;3.81;85.24;99402.00;1525879;85;23251;-88
2021/12/05 14:07:02;;;;;;;242.17;87.80;;;;;;;3.80;85.02;99400.35;1520912;85;22339;-92
2021/12/05 14:09:48;;;;;;;98.30;41.87;;;;;;;3.76;84.89;99396.80;1502486;85;22102;-92
2021/12/05 14:12:24;;;;;;;44.07;25.83;;;;;;;3.72;84.90;99393.63;1516305;85;22184;-91
2021/12/05 14:14:56;;;;;;;45.83;26.70;;;;;;;3.64;85.10;99382.96;1521987;85;22042;-91
2021/12/05 14:17:27;;;;;;;53.07;28.23;;;;;;;3.58;85.58;99384.30;1518276;85;22053;-92
2021/12/05 14:19:58;;;;;;;43.60;27.50;;;;;;;3.55;85.63;99392.41;1522280;85;21865;-90
2021/12/05 14:22:29;;;;;;;;;;;;;;;3.50;85.61;99385.42;1529572;85;21404;-90
2021/12/05 14:24:59;;;;;;;35.50;23.85;;;;;;;3.46;86.09;99387.95;1508936;85;20294;-89
2021/12/05 14:27:30;;;;;;;39.00;25.57;;;;;;;3.46;86.19;99384.52;1523609;85;21434;-88
2021/12/05 14:29:58;;;;;;;120.55;53.92;;;;;;;3.46;86.19;99384.52;1517972;85;22109;-90
2021/12/05 14:32:33;;;;;;;80.53;42.10;;;;;;;3.46;86.28;99389.26;1502583;85;21322;-89
2021/12/05 14:35:16;;;;;;;50.83;32.03;;;;;;;3.45;86.09;99381.05;1514688;85;22011;-89
2021/12/05 14:37:47;;;;;;;116.67;58.70;;;;;;;3.43;86.22;99380.36;1518883;85;22101;-89
2021/12/05 14:40:20;;;;;;;119.17;57.58;;;;;;;3.43;86.22;99380.36;1523287;85;21974;-88
2021/12/05 14:42:50;;;;;;;431.13;168.87;;;;;;;3.42;85.88;99387.84;1520002;85;22381;-89
2021/12/05 14:45:22;;;;;;;159.18;69.67;;;;;;;3.36;86.72;99387.87;1525917;85;21995;-89
2021/12/05 14:47:52;;;;;;;114.07;52.33;;;;;;;3.34;86.22;99402.05;1518923;85;21439;-88
2021/12/05 14:50:24;;;;;;;42.83;26.77;;;;;;;3.29;86.48;99394.58;1511496;85;22120;-89
2021/12/05 14:52:57;;;;;;;53.30;34.67;;;;;;;3.35;86.51;99399.78;1516682;85;22237;-90
2021/12/05 14:55:27;;;;;;;39.10;24.50;;;;;;;3.39;86.38;99399.86;1514949;85;22128;-90
2021/12/05 14:58:02;;;;;;;61.67;35.57;;;;;;;3.43;86.50;99406.52;1518082;85;23130;-88
2021/12/05 15:00:39;;;;;;;95.60;52.27;;;;;;;3.45;86.51;99404.58;1515654;85;22033;-88
2021/12/05 15:03:21;;;;;;;81.20;42.50;;;;;;;3.41;86.69;99406.30;1509966;85;22099;-93
2021/12/05 15:06:07;;;;;;;71.80;40.25;;;;;;;3.37;86.71;99414.87;1470178;83;22382;31
2021/12/05 15:08:30;;;;;;;53.50;30.77;;;;;;;3.37;86.71;99414.87;1456132;85;22347;-88
2021/12/05 15:11:07;;;;;;;42.57;27.47;;;;;;;3.31;86.48;99408.36;1429649;90;22213;-94
2021/12/05 15:13:33;;;;;;;52.47;32.50;;;;;;;3.32;86.68;99410.50;1461837;89;22190;-91
2021/12/05 15:15:59;;;;;;;78.90;44.60;;;;;;;3.33;86.62;99397.76;1461037;88;23261;-91
2021/12/05 15:18:32;;;;;;;62.83;34.87;;;;;;;3.30;86.82;99394.91;1453470;88;23339;-91
2021/12/05 15:21:15;;;;;;;49.50;29.10;;;;;;;3.30;86.82;99394.91;1455749;88;22967;-92
2021/12/05 15:23:35;;;;;;;52.08;30.02;;;;;;;3.35;87.01;99408.94;1439693;88;22097;-92
2021/12/05 15:26:05;;;;;;;47.63;29.07;;;;;;;3.34;87.06;99404.67;1453578;88;21412;-92
2021/12/05 15:28:35;;;;;;;57.00;35.93;;;;;;;3.32;87.11;99411.80;1457731;88;21960;-92
2021/12/05 15:31:00;;;;;;;51.73;33.53;;;;;;;3.27;87.47;99408.73;1453623;88;22226;-92
2021/12/05 15:33:28;;;;;;;48.43;31.87;;;;;;;3.27;87.47;99408.73;1450652;88;24352;-91
2021/12/05 15:35:56;;;;;;;49.40;34.00;;;;;;;3.23;87.53;99400.59;1422569;90;22156;-91
2021/12/05 15:38:29;;;;;;;39.83;28.00;;;;;;;3.14;87.32;99400.59;1453211;88;22084;-93
2021/12/05 15:41:04;;;;;;;38.80;26.53;;;;;;;3.23;87.39;99413.87;1450139;90;22187;-91
2021/12/05 15:43:36;;;;;;;32.73;23.30;;;;;;;3.24;87.43;99416.83;1456078;90;22231;-90
2021/12/05 15:46:13;;;;;;;34.92;24.05;;;;;;;3.24;87.58;99425.49;1449525;88;22161;-89
2021/12/05 15:48:39;;;;;;;53.70;35.57;;;;;;;3.25;87.96;99423.70;1442468;90;22574;-90
2021/12/05 15:51:14;;;;;;;67.63;36.07;;;;;;;3.25;87.96;99423.70;1452988;90;22142;-89
2021/12/05 15:53:40;;;;;;;87.83;43.33;;;;;;;3.23;87.70;99420.41;1451498;87;22229;-89
2021/12/05 15:56:13;;;;;;;271.67;105.47;;;;;;;3.20;87.73;99412.81;1455341;89;22100;-89
2021/12/05 15:58:51;;;;;;;288.20;117.47;;;;;;;3.18;87.89;99412.10;1485259;84;22415;-92
2021/12/05 16:01:23;;;;;;;356.33;127.73;;;;;;;3.14;87.85;99422.81;1490416;87;22148;-91
2021/12/05 16:03:57;;;;;;;408.07;165.63;;;;;;;3.14;87.85;99422.81;1497581;85;22036;-89
2021/12/05 16:06:37;;;;;;;256.97;105.17;;;;;;;3.14;87.73;99420.68;1504952;85;22072;-91
2021/12/05 16:09:18;;;;;;;93.72;47.25;;;;;;;3.12;87.79;99411.64;1501685;85;21909;-91
2021/12/05 16:11:47;;;;;;;51.45;32.95;;;;;;;3.18;87.92;99424.69;1499214;85;22562;-91
2021/12/05 16:14:36;;;;;;;124.17;57.67;;;;;;;3.12;88.27;99418.66;1491192;85;21409;-92
2021/12/05 16:17:22;;;;;;;85.03;46.10;;;;;;;3.12;88.27;99418.66;1494034;85;22033;-92
2021/12/05 16:20:10;;;;;;;114.57;52.50;;;;;;;3.04;88.57;99406.69;1517636;84;22607;-91
2021/12/05 16:23:06;;;;;;;263.33;101.77;;;;;;;3.04;88.57;99406.69;1508571;84;22316;-93
2021/12/05 16:25:43;;;;;;;440.20;161.03;;;;;;;2.96;89.33;99412.52;1506263;86;23135;-93
2021/12/05 16:28:17;;;;;;;777.23;352.13;;;;;;;2.96;89.33;99412.52;1494069;87;23064;-95
2021/12/05 16:30:47;;;;;;;510.60;228.33;;;;;;;2.90;89.99;99403.87;1502086;86;22312;-94
2021/12/05 16:33:19;;;;;;;307.60;129.73;;;;;;;2.90;89.99;99403.87;1497320;86;21998;-93
2021/12/05 16:35:49;;;;;;;;;;;;;;;2.91;89.62;99425.98;1501534;86;23188;-93
2021/12/05 16:38:36;;;;;;;475.47;228.87;;;;;;;2.87;89.69;99423.23;1491105;87;20255;-91
2021/12/05 16:41:14;;;;;;;191.57;91.03;;;;;;;2.87;89.69;99423.23;1512321;85;22789;-91
2021/12/05 16:43:52;;;;;;;65.10;39.97;;;;;;;2.86;90.01;99431.22;1526761;85;22054;-93
2021/12/05 16:46:36;;;;;;;45.73;29.33;;;;;;;2.82;89.86;99412.34;1483438;85;21893;-94
2021/12/05 16:51:58;;;;;;;117.47;65.83;;;;;;;2.91;90.54;99422.54;1421120;85;22037;-93
2021/12/05 16:55:02;;;;;;;227.07;104.43;;;;;;;2.91;90.54;99422.54;1481480;88;21891;-92
2021/12/05 16:57:40;;;;;;;368.17;169.13;;;;;;;2.86;90.72;99420.28;1484101;87;22118;-93
2021/12/05 17:00:15;;;;;;;368.33;160.43;;;;;;;2.69;92.08;99424.72;1426402;85;22277;-92
2021/12/05 17:02:51;;;;;;;409.13;177.47;;;;;;;2.69;92.08;99424.72;1456300;88;23217;-94
2021/12/05 17:05:33;;;;;;;410.07;181.27;;;;;;;2.59;92.94;99426.38;1447399;90;22020;-93
2021/12/05 17:08:28;;;;;;;490.57;247.40;;;;;;;2.48;93.38;99417.62;1465913;88;21872;-92
2021/12/05 17:11:04;;;;;;;388.40;182.80;;;;;;;2.48;93.38;99417.62;1440193;89;21936;-92
2021/12/05 17:13:47;;;;;;;485.83;251.93;;;;;;;2.52;92.78;99431.27;1434487;90;22848;-90